Time;durP1;ratioP1;P1;durP2;ratioP2;P2;SDS_P1;SDS_P2;PMS_P1;PMS_P2;Temp;Humidity;BMP_temperature;BMP_pressure;BME280_temperature;BME280_humidity;BME280_pressure;Samples;Min_cycle;Max_cycle;Signal;HPM_P1;HPM_P2
2022/03/09 00:00:48;;;;;;;21.95;13.43;;;51.80;2227.20;;;;;;5070398;28;20462;-59
2022/03/09 00:03:14;;;;;;;24.73;14.32;;;51.80;2227.20;;;;;;5070123;28;20078;-60
2022/03/09 00:05:41;;;;;;;19.80;12.55;;;51.80;2227.20;;;;;;5070423;28;20078;-61
2022/03/09 00:08:07;;;;;;;30.83;19.08;;;51.80;2227.20;;;;;;5069958;28;20392;-58
2022/03/09 00:10:33;;;;;;;20.35;13.98;;;51.60;2227.20;;;;;;5070048;28;20029;-59
2022/03/09 00:12:58;;;;;;;21.23;11.63;;;51.70;2227.20;;;;;;5070114;28;20091;-58
2022/03/09 00:15:25;;;;;;;22.27;14.75;;;51.60;2227.20;;;;;;5070000;28;20379;-57
2022/03/09 00:17:51;;;;;;;22.35;15.23;;;51.50;2227.20;;;;;;5070357;28;20028;-58
2022/03/09 00:20:17;;;;;;;21.27;14.90;;;51.50;2227.20;;;;;;5070260;28;20177;-58
2022/03/09 00:22:42;;;;;;;28.33;16.02;;;51.60;2227.20;;;;;;5069813;28;20029;-58
2022/03/09 00:25:08;;;;;;;24.63;13.85;;;51.50;2227.20;;;;;;5070043;28;20032;-58
2022/03/09 00:27:34;;;;;;;24.73;14.88;;;51.50;2227.20;;;;;;5069872;28;20513;-58
2022/03/09 00:30:01;;;;;;;26.45;14.88;;;51.40;2227.20;;;;;;5069813;28;20040;-58
2022/03/09 00:32:27;;;;;;;30.30;18.40;;;51.30;2227.20;;;;;;5069889;28;20117;-58
2022/03/09 00:34:53;;;;;;;23.98;15.98;;;51.30;2227.20;;;;;;5069804;28;20025;-58
2022/03/09 00:37:19;;;;;;;24.08;16.92;;;51.30;2227.20;;;;;;5069853;28;20086;-59
2022/03/09 00:39:45;;;;;;;25.42;16.35;;;51.40;2227.20;;;;;;5069653;28;20028;-61
2022/03/09 00:42:11;;;;;;;26.98;16.35;;;51.50;2227.20;;;;;;5069870;28;20016;-60
2022/03/09 00:44:37;;;;;;;21.40;11.52;;;51.30;2227.20;;;;;;5070225;28;20028;-57
2022/03/09 00:47:03;;;;;;;21.75;14.30;;;51.30;2227.20;;;;;;5073611;28;20060;-59
2022/03/09 00:49:28;;;;;;;20.27;13.35;;;51.20;2227.20;;;;;;5073736;28;20036;-57
2022/03/09 00:51:54;;;;;;;22.48;14.05;;;51.20;2227.20;;;;;;5073718;28;20027;-60
2022/03/09 00:54:20;;;;;;;29.08;15.15;;;26.50;2201.60;;;;;;5073873;28;20406;-57
2022/03/09 00:56:46;;;;;;;25.30;15.40;;;51.20;2227.20;;;;;;5073770;28;20479;-61
2022/03/09 00:59:11;;;;;;;22.63;13.90;;;51.20;2227.20;;;;;;5073384;28;20050;-58
2022/03/09 01:01:37;;;;;;;24.92;15.35;;;26.50;2201.60;;;;;;5073608;28;20104;-58
2022/03/09 01:04:03;;;;;;;27.15;14.20;;;26.50;2201.60;;;;;;5073590;28;20029;-58
2022/03/09 01:06:29;;;;;;;22.77;14.10;;;26.50;2201.60;;;;;;5073464;28;20040;-59
2022/03/09 01:08:57;;;;;;;25.38;13.30;;;26.50;2201.60;;;;;;5073368;28;20032;-61
2022/03/09 01:11:23;;;;;;;22.20;14.52;;;26.40;2201.60;;;;;;5073292;28;20016;-57
2022/03/09 01:13:49;;;;;;;23.95;13.68;;;26.40;2201.60;;;;;;5073567;28;20497;-58
2022/03/09 01:16:15;;;;;;;22.98;15.02;;;26.40;2201.60;;;;;;5073208;28;20103;-58
2022/03/09 01:18:41;;;;;;;19.58;11.75;;;26.30;2201.60;;;;;;5073417;28;20028;-61
2022/03/09 01:21:06;;;;;;;25.17;13.25;;;26.30;2201.60;;;;;;5073296;28;20055;-58
2022/03/09 01:23:32;;;;;;;37.47;20.98;;;26.30;2201.60;;;;;;5072968;28;20024;-58
2022/03/09 01:25:58;;;;;;;26.70;16.08;;;26.30;2201.60;;;;;;5073298;28;20103;-57
2022/03/09 01:28:24;;;;;;;33.85;17.75;;;26.40;2201.60;;;;;;5072795;28;20108;-61
2022/03/09 01:30:50;;;;;;;27.77;16.60;;;26.40;2201.60;;;;;;5072808;28;20509;-57
2022/03/09 01:33:17;;;;;;;28.88;18.67;;;26.30;2201.60;;;;;;5072766;28;20036;-58
2022/03/09 01:35:42;;;;;;;26.70;16.95;;;26.20;2201.60;;;;;;5072787;28;20028;-58
2022/03/09 01:38:08;;;;;;;24.45;15.98;;;26.20;2201.60;;;;;;5072900;28;20119;-58
2022/03/09 01:40:34;;;;;;;28.38;16.77;;;26.10;2201.60;;;;;;5072645;28;20112;-61
2022/03/09 01:43:00;;;;;;;25.30;15.30;;;26.10;2201.60;;;;;;5072748;28;20070;-61
2022/03/09 01:45:26;;;;;;;29.55;17.30;;;26.00;2201.60;;;;;;5072715;28;20032;-58
2022/03/09 01:47:52;;;;;;;26.50;15.25;;;26.00;2201.60;;;;;;5072536;28;20037;-58
2022/03/09 01:50:18;;;;;;;23.00;14.82;;;26.00;2201.60;;;;;;5073141;28;20032;-59
2022/03/09 01:52:44;;;;;;;23.45;14.50;;;25.90;2201.60;;;;;;5072505;28;20040;-58
2022/03/09 01:55:11;;;;;;;22.40;13.55;;;25.90;2201.60;;;;;;5072832;28;20162;-56
2022/03/09 01:57:37;;;;;;;25.35;16.00;;;25.80;2201.60;;;;;;5071945;28;20056;-57
2022/03/09 02:00:05;;;;;;;25.45;16.65;;;25.80;2201.60;;;;;;5072470;28;20035;-58
2022/03/09 02:02:30;;;;;;;22.67;14.68;;;25.90;2201.60;;;;;;5072453;28;20020;-60
2022/03/09 02:04:56;;;;;;;30.25;18.40;;;25.80;2201.60;;;;;;5072534;28;20029;-58
2022/03/09 02:09:41;;;;;;;22.65;15.95;;;25.80;2201.60;;;;;;5072056;28;20039;-58
2022/03/09 02:10:09;;;;;;;27.58;16.52;;;25.80;2201.60;;;;;;5072081;28;20043;-58
2022/03/09 02:12:35;;;;;;;26.25;15.90;;;25.80;2201.60;;;;;;5072019;28;20040;-57
2022/03/09 02:15:01;;;;;;;35.78;17.73;;;25.80;2201.60;;;;;;5072196;28;20028;-58
2022/03/09 02:17:28;;;;;;;32.53;19.55;;;25.80;2201.60;;;;;;5072218;28;20035;-58
2022/03/09 02:19:55;;;;;;;31.27;19.20;;;25.70;2201.60;;;;;;5072204;28;20021;-61
2022/03/09 02:22:33;;;;;;;31.60;19.08;;;25.60;2201.60;;;;;;5070968;28;20398;-59
2022/03/09 02:25:01;;;;;;;27.42;16.33;;;25.60;2201.60;;;;;;5072116;28;20033;-58
2022/03/09 02:27:27;;;;;;;28.50;17.85;;;25.60;2201.60;;;;;;5072037;28;20066;-57
2022/03/09 02:29:54;;;;;;;32.08;17.92;;;25.70;2201.60;;;;;;5071601;28;20049;-58
2022/03/09 02:32:20;;;;;;;24.08;14.95;;;25.80;2201.60;;;;;;5071810;28;20031;-59
2022/03/09 02:34:46;;;;;;;28.02;16.98;;;25.80;2201.60;;;;;;5071922;28;20032;-61
2022/03/09 02:37:12;;;;;;;27.70;16.60;;;26.00;2201.60;;;;;;5071583;28;20099;-59
2022/03/09 02:39:38;;;;;;;25.15;15.10;;;26.00;2201.60;;;;;;5071653;28;20386;-61
2022/03/09 02:42:06;;;;;;;29.90;16.13;;;26.00;2201.60;;;;;;5071600;28;20021;-58
2022/03/09 02:44:32;;;;;;;28.55;16.40;;;26.10;2201.60;;;;;;5071382;28;20033;-58
2022/03/09 02:46:58;;;;;;;28.25;16.25;;;26.30;2201.60;;;;;;5071721;28;20021;-58
2022/03/09 02:49:24;;;;;;;26.50;14.98;;;26.30;2201.60;;;;;;5071468;28;20036;-59
2022/03/09 02:51:50;;;;;;;27.10;15.40;;;26.20;2201.60;;;;;;5071556;28;20029;-57
2022/03/09 02:54:16;;;;;;;29.83;15.48;;;26.30;2201.60;;;;;;5071470;28;20035;-58
2022/03/09 02:56:42;;;;;;;26.23;15.02;;;26.40;2201.60;;;;;;5071324;28;20020;-58
2022/03/09 02:59:08;;;;;;;26.08;16.00;;;26.40;2201.60;;;;;;5071438;28;20020;-57
2022/03/09 03:01:35;;;;;;;27.48;15.98;;;26.50;2201.60;;;;;;5071254;28;20047;-61
2022/03/09 03:04:00;;;;;;;28.23;15.18;;;26.50;2201.60;;;;;;5071402;28;20032;-58
2022/03/09 03:06:26;;;;;;;27.70;16.05;;;26.50;2201.60;;;;;;5070822;28;20463;-58
2022/03/09 03:08:52;;;;;;;26.15;15.95;;;26.50;2201.60;;;;;;5069974;28;20060;-60
2022/03/09 03:11:18;;;;;;;33.10;16.80;;;26.40;2201.60;;;;;;5071256;28;20021;-60
2022/03/09 03:13:44;;;;;;;27.00;15.38;;;26.50;2201.60;;;;;;5070845;28;20028;-60
2022/03/09 03:16:11;;;;;;;27.33;15.77;;;51.20;2227.20;;;;;;5071070;28;20071;-58
2022/03/09 03:18:38;;;;;;;26.17;15.82;;;51.20;2227.20;;;;;;5071038;28;20032;-61
2022/03/09 03:21:04;;;;;;;22.33;13.50;;;51.30;2227.20;;;;;;5070696;28;20104;-58
2022/03/09 03:23:31;;;;;;;29.33;16.80;;;51.40;2227.20;;;;;;5070951;28;20047;-58
2022/03/09 03:25:58;;;;;;;25.77;15.73;;;51.30;2227.20;;;;;;5070848;28;20024;-60
2022/03/09 03:28:25;;;;;;;26.15;15.38;;;51.30;2227.20;;;;;;5070552;28;20111;-61
2022/03/09 03:30:51;;;;;;;28.65;15.25;;;51.40;2227.20;;;;;;5070588;28;20060;-58
2022/03/09 03:33:18;;;;;;;24.65;13.90;;;51.30;2227.20;;;;;;5070869;28;20036;-61
2022/03/09 03:35:45;;;;;;;25.35;18.08;;;51.30;2227.20;;;;;;5070443;28;20040;-58
2022/03/09 03:38:12;;;;;;;25.58;15.75;;;51.30;2227.20;;;;;;5070634;28;20046;-58
2022/03/09 03:40:38;;;;;;;34.70;17.15;;;51.40;2227.20;;;;;;5070634;28;20033;-60
2022/03/09 03:43:05;;;;;;;22.20;14.77;;;51.30;2227.20;;;;;;5070149;28;20024;-59
2022/03/09 03:45:31;;;;;;;27.40;15.93;;;51.40;2227.20;;;;;;5070461;28;20024;-58
2022/03/09 03:47:56;;;;;;;27.42;15.77;;;51.50;2227.20;;;;;;5070616;28;20077;-61
2022/03/09 03:50:22;;;;;;;22.73;14.15;;;51.40;2227.20;;;;;;5070235;28;20025;-58
2022/03/09 03:52:48;;;;;;;24.90;15.48;;;51.40;2227.20;;;;;;5070543;28;20036;-61
2022/03/09 03:55:14;;;;;;;22.45;14.60;;;51.40;2227.20;;;;;;5070171;28;20107;-61
2022/03/09 03:57:40;;;;;;;23.50;15.10;;;51.30;2227.20;;;;;;5070451;28;20032;-61
2022/03/09 04:00:08;;;;;;;27.85;16.85;;;51.40;2227.20;;;;;;5070160;28;20024;-61
2022/03/09 04:02:34;;;;;;;33.63;16.77;;;51.30;2227.20;;;;;;5070122;28;20459;-58
2022/03/09 04:04:59;;;;;;;26.98;16.67;;;51.30;2227.20;;;;;;5070238;28;20021;-58
2022/03/09 04:07:25;;;;;;;27.98;17.38;;;51.20;2227.20;;;;;;5069998;28;20031;-59
2022/03/09 04:09:51;;;;;;;27.77;16.73;;;26.50;2201.60;;;;;;5070059;28;20502;-59
2022/03/09 04:12:17;;;;;;;33.15;18.08;;;26.50;2201.60;;;;;;5070207;28;20391;-62
2022/03/09 04:14:43;;;;;;;31.58;21.83;;;26.50;2201.60;;;;;;5070049;28;20021;-61
2022/03/09 04:17:09;;;;;;;38.03;32.40;;;26.50;2201.60;;;;;;5070134;28;20070;-57
2022/03/09 04:19:34;;;;;;;27.48;17.35;;;26.30;2201.60;;;;;;5069744;28;20028;-61
2022/03/09 04:22:00;;;;;;;30.77;19.83;;;26.40;2201.60;;;;;;5070158;28;20394;-57
2022/03/09 04:24:26;;;;;;;32.17;18.55;;;26.20;2201.60;;;;;;5069646;28;20466;-61
2022/03/09 04:26:52;;;;;;;30.40;20.20;;;26.20;2201.60;;;;;;5069975;28;20024;-58
2022/03/09 04:29:19;;;;;;;25.08;16.75;;;26.20;2201.60;;;;;;5070126;28;20125;-58
2022/03/09 04:31:45;;;;;;;32.50;21.10;;;26.40;2201.60;;;;;;5069747;28;20131;-61
2022/03/09 04:34:11;;;;;;;31.90;19.40;;;26.40;2201.60;;;;;;5068528;28;20167;-57
2022/03/09 04:36:37;;;;;;;31.30;19.55;;;26.40;2201.60;;;;;;5069956;28;20028;-58
2022/03/09 04:39:03;;;;;;;27.35;17.70;;;26.40;2201.60;;;;;;5069622;28;20035;-59
2022/03/09 04:41:29;;;;;;;36.15;21.65;;;26.30;2201.60;;;;;;5069810;28;20036;-58
2022/03/09 04:43:55;;;;;;;27.88;19.85;;;26.30;2201.60;;;;;;5069616;28;20459;-61
2022/03/09 04:46:21;;;;;;;30.40;18.50;;;26.40;2201.60;;;;;;5069814;28;20477;-58
2022/03/09 04:48:48;;;;;;;34.65;21.27;;;26.50;2201.60;;;;;;5069945;28;20037;-59
2022/03/09 04:51:15;;;;;;;31.70;22.17;;;26.40;2201.60;;;;;;5069631;28;20028;-61
2022/03/09 04:53:41;;;;;;;30.98;18.70;;;51.20;2227.20;;;;;;5069412;28;20119;-61
2022/03/09 04:56:07;;;;;;;31.70;25.45;;;26.50;2201.60;;;;;;5069789;28;20031;-60
2022/03/09 04:58:33;;;;;;;30.13;20.08;;;26.40;2201.60;;;;;;5069462;28;20028;-61
2022/03/09 05:00:59;;;;;;;35.25;20.58;;;26.50;2201.60;;;;;;5069556;28;20029;-61
2022/03/09 05:03:24;;;;;;;33.25;20.73;;;26.50;2201.60;;;;;;5069691;28;20027;-58
2022/03/09 05:05:50;;;;;;;30.45;20.25;;;51.20;2227.20;;;;;;5069861;28;20057;-58
2022/03/09 05:08:16;;;;;;;29.98;22.05;;;26.50;2201.60;;;;;;5069790;28;20037;-61
2022/03/09 05:10:42;;;;;;;31.52;20.83;;;26.50;2201.60;;;;;;5069477;28;20032;-58
2022/03/09 05:13:07;;;;;;;32.03;20.13;;;26.50;2201.60;;;;;;5069441;28;20544;-61
2022/03/09 05:15:33;;;;;;;36.17;18.42;;;26.50;2201.60;;;;;;5069272;28;20029;-60
2022/03/09 05:17:59;;;;;;;37.53;24.95;;;26.50;2201.60;;;;;;5069683;28;20028;-57
2022/03/09 05:20:25;;;;;;;33.33;17.67;;;26.50;2201.60;;;;;;5069418;28;20104;-61
2022/03/09 05:22:51;;;;;;;25.33;17.42;;;26.50;2201.60;;;;;;5069504;28;20032;-57
2022/03/09 05:25:18;;;;;;;29.92;19.05;;;26.40;2201.60;;;;;;5069621;28;20016;-54
2022/03/09 05:27:44;;;;;;;26.55;19.67;;;51.20;2227.20;;;;;;5069339;28;20100;-57
2022/03/09 05:30:10;;;;;;;35.15;23.17;;;51.30;2227.20;;;;;;5069340;28;20473;-55
2022/03/09 05:32:37;;;;;;;27.67;21.40;;;51.30;2227.20;;;;;;5070853;28;20448;-58
2022/03/09 05:35:04;;;;;;;39.17;18.40;;;51.30;2227.20;;;;;;5072893;28;20045;-55
2022/03/09 05:37:38;;;;;;;32.33;20.55;;;51.30;2227.20;;;;;;5072817;28;20047;-58
2022/03/09 05:40:05;;;;;;;28.85;19.92;;;51.30;2227.20;;;;;;5072716;28;20098;-55
2022/03/09 05:42:31;;;;;;;36.90;26.77;;;51.30;2227.20;;;;;;5072773;28;20028;-55
2022/03/09 05:44:56;;;;;;;32.38;20.92;;;51.30;2227.20;;;;;;5072560;28;20029;-55
2022/03/09 05:47:22;;;;;;;30.27;21.15;;;51.60;2227.20;;;;;;5072574;28;20024;-55
2022/03/09 05:49:48;;;;;;;36.10;22.05;;;51.60;2227.20;;;;;;5072996;28;20024;-55
2022/03/09 05:52:14;;;;;;;33.55;21.40;;;51.80;2227.20;;;;;;5072315;28;20029;-55
2022/03/09 05:54:39;;;;;;;62.63;42.50;;;52.00;2227.20;;;;;;5072523;28;20036;-55
2022/03/09 05:57:05;;;;;;;45.47;26.65;;;77.00;2227.20;;;;;;5072459;28;20383;-55
2022/03/09 05:59:31;;;;;;;85.85;58.13;;;77.10;2227.20;;;;;;5072565;28;20024;-55
2022/03/09 06:01:57;;;;;;;34.67;22.80;;;77.20;2227.20;;;;;;5072278;28;20025;-55
2022/03/09 06:04:22;;;;;;;31.58;19.73;;;77.20;2227.20;;;;;;5072241;28;20518;-55
2022/03/09 06:06:48;;;;;;;31.45;20.17;;;77.20;2227.20;;;;;;5072470;28;20029;-55
2022/03/09 06:09:14;;;;;;;34.30;23.63;;;77.20;2227.20;;;;;;5072220;28;20035;-55
2022/03/09 06:11:41;;;;;;;32.17;18.83;;;77.30;2227.20;;;;;;5072490;28;20032;-55
2022/03/09 06:14:07;;;;;;;34.40;20.85;;;77.50;2227.20;;;;;;5072006;28;20454;-56
2022/03/09 06:16:33;;;;;;;30.50;17.85;;;77.70;2227.20;;;;;;5072110;28;20016;-56
2022/03/09 06:18:58;;;;;;;32.17;18.20;;;77.70;2227.20;;;;;;5072217;28;20147;-55
2022/03/09 06:21:24;;;;;;;31.88;20.20;;;102.40;2227.20;;;;;;5071910;28;20029;-55
2022/03/09 06:23:50;;;;;;;33.38;20.67;;;102.50;2227.20;;;;;;5072225;28;20520;-56
2022/03/09 06:26:16;;;;;;;31.60;18.48;;;102.80;2227.20;;;;;;5071965;28;20390;-55
2022/03/09 06:28:41;;;;;;;40.53;31.08;;;128.80;2252.80;;;;;;5072071;28;20359;-55
2022/03/09 06:31:07;;;;;;;26.27;19.40;;;180.10;2252.80;;;;;;5071570;28;20118;-56
2022/03/09 06:33:33;;;;;;;31.52;22.08;;;179.50;2252.80;;;;;;5071591;28;20032;-56
2022/03/09 06:35:59;;;;;;;30.80;23.35;;;154.50;2252.80;;;;;;5071942;28;20025;-56
2022/03/09 06:38:25;;;;;;;31.33;22.63;;;205.40;2099.20;;;;;;5071443;28;20028;-58
2022/03/09 06:40:51;;;;;;;28.58;21.95;;;281.60;1843.20;;;;;;5071760;28;20025;-56
2022/03/09 06:43:17;;;;;;;29.65;23.70;;;;;;;;;;5071485;28;20524;-58
2022/03/09 06:45:43;;;;;;;29.60;23.00;;;308.10;1638.40;;;;;;5071414;28;20021;-57
2022/03/09 06:48:08;;;;;;;29.45;21.77;;;333.20;1612.80;;;;;;5071495;28;20047;-59
2022/03/09 06:50:35;;;;;;;31.42;21.90;;;;;;;;;;5071312;28;20157;-56
2022/03/09 06:53:01;;;;;;;30.77;22.80;;;;;;;;;;5071456;28;20025;-56
2022/03/09 06:55:27;;;;;;;27.38;21.67;;;;;;;;;;5071223;28;20028;-56
2022/03/09 06:57:53;;;;;;;33.50;22.58;;;;;;;;;;5071321;28;20028;-57
2022/03/09 07:00:19;;;;;;;28.92;22.42;;;359.10;1433.60;;;;;;5071399;28;20035;-57
2022/03/09 07:02:46;;;;;;;25.95;20.30;;;333.30;1510.40;;;;;;5071136;28;20025;-57
2022/03/09 07:05:12;;;;;;;25.95;21.35;;;;;;;;;;5071454;28;20111;-56
2022/03/09 07:07:39;;;;;;;31.17;21.65;;;282.00;1664.00;;;;;;5071108;28;20226;-58
2022/03/09 07:10:10;;;;;;;24.65;18.88;;;;;;;;;;5070889;28;20489;-58
2022/03/09 07:12:36;;;;;;;27.10;20.55;;;;;;;;;;5070940;28;20032;-59
2022/03/09 07:15:03;;;;;;;25.90;21.02;;;;;;;;;;5071053;28;20036;-58
2022/03/09 07:17:29;;;;;;;29.88;20.27;;;;;;;;;;5070929;28;20429;-59
2022/03/09 07:19:55;;;;;;;25.30;19.08;;;;;;;;;;5070797;28;20028;-59
2022/03/09 07:22:21;;;;;;;169.75;121.25;;;384.50;1408.00;;;;;;5070777;28;20025;-59
2022/03/09 07:24:47;;;;;;;26.58;21.55;;;;;;;;;;5070849;28;20379;-56
2022/03/09 07:27:12;;;;;;;23.77;20.13;;;384.60;1382.40;;;;;;5070604;28;20052;-57
2022/03/09 07:29:38;;;;;;;31.27;27.92;;;384.60;1612.80;;;;;;5070560;28;20063;-59
2022/03/09 07:32:05;;;;;;;108.53;79.07;;;435.90;1280.00;;;;;;5070382;28;20523;-57
2022/03/09 07:34:31;;;;;;;28.92;22.60;;;461.70;1228.80;;;;;;5070730;28;20028;-58
2022/03/09 07:36:58;;;;;;;25.45;22.77;;;487.30;1152.00;;;;;;5070283;28;20033;-57
2022/03/09 07:39:29;;;;;;;22.10;18.35;;;512.10;1152.00;;;;;;5070612;28;20033;-57
2022/03/09 07:41:56;;;;;;;23.70;18.05;;;461.70;1177.60;;;;;;5070505;28;20096;-57
2022/03/09 07:44:23;;;;;;;26.60;21.55;;;461.20;1177.60;;;;;;5070521;28;20098;-59
2022/03/09 07:46:49;;;;;;;27.45;22.48;;;435.60;1203.20;;;;;;5070571;28;20028;-60
2022/03/09 07:49:16;;;;;;;47.88;36.95;;;435.90;1228.80;;;;;;5070330;28;20463;-60
2022/03/09 07:51:43;;;;;;;33.63;27.10;;;435.40;1228.80;;;;;;5070719;28;20364;-60
2022/03/09 07:54:09;;;;;;;19.27;17.25;;;384.90;1280.00;;;;;;5070169;28;20036;-59
2022/03/09 07:56:37;;;;;;;26.90;19.17;;;384.60;1305.60;;;;;;5069799;28;20017;-59
2022/03/09 07:59:05;;;;;;;26.33;20.05;;;;;;;;;;5070097;28;20032;-57
2022/03/09 08:01:31;;;;;;;167.75;116.97;;;;;;;;;;5070250;28;20059;-60
2022/03/09 08:03:57;;;;;;;21.70;16.35;;;;;;;;;;5070132;28;20075;-61
2022/03/09 08:06:23;;;;;;;20.15;15.15;;;358.60;1331.20;;;;;;5070313;28;20056;-57
2022/03/09 08:08:48;;;;;;;30.10;22.27;;;333.60;1356.80;;;;;;5070193;28;20052;-60
2022/03/09 08:11:14;;;;;;;33.97;25.40;;;333.30;1433.60;;;;;;5070152;28;20020;-59
2022/03/09 08:13:40;;;;;;;24.83;20.02;;;333.20;1408.00;;;;;;5070134;28;20047;-55
2022/03/09 08:16:07;;;;;;;29.10;24.33;;;308.10;1433.60;;;;;;5069941;28;20017;-56
2022/03/09 08:18:33;;;;;;;21.25;16.20;;;;;;;;;;5069862;28;20020;-57
2022/03/09 08:20:59;;;;;;;30.15;26.77;;;282.50;1484.80;;;;;;5070167;28;20020;-54
2022/03/09 08:23:25;;;;;;;19.00;15.40;;;281.70;1484.80;;;;;;5070151;28;20024;-56
2022/03/09 08:25:51;;;;;;;18.50;14.77;;;;;;;;;;5069881;28;20035;-56
2022/03/09 08:28:18;;;;;;;23.05;17.15;;;;;;;;;;5069948;28;20078;-58
2022/03/09 08:30:44;;;;;;;36.25;24.13;;;;;;;;;;5069706;28;20044;-56
2022/03/09 08:33:10;;;;;;;25.85;17.42;;;;;;;;;;5069949;28;20041;-56
2022/03/09 08:35:37;;;;;;;20.27;15.18;;;;;;;;;;5069705;28;20020;-56
2022/03/09 08:38:02;;;;;;;27.33;17.80;;;230.80;1638.40;;;;;;5069780;28;20119;-56
2022/03/09 08:40:28;;;;;;;24.95;17.20;;;;;;;;;;5069942;28;20055;-55
2022/03/09 08:42:54;;;;;;;26.67;17.25;;;;;;;;;;5067319;28;20020;-57
2022/03/09 08:45:21;;;;;;;24.17;16.95;;;;;;;;;;5068214;28;20051;-56
2022/03/09 08:47:47;;;;;;;25.08;18.27;;;;;;;;;;5067986;28;20025;-57
2022/03/09 08:50:13;;;;;;;37.70;23.42;;;;;;;;;;5068259;28;20089;-56
2022/03/09 08:52:39;;;;;;;23.33;17.10;;;205.60;1715.20;;;;;;5068125;28;20077;-56
2022/03/09 08:55:05;;;;;;;26.25;16.98;;;205.50;1715.20;;;;;;5067501;28;20111;-56
2022/03/09 08:57:31;;;;;;;23.83;14.43;;;205.10;1740.80;;;;;;5068211;28;20048;-55
2022/03/09 08:59:57;;;;;;;21.48;13.40;;;;;;;;;;5067962;28;20059;-55
2022/03/09 09:02:24;;;;;;;20.45;13.80;;;204.90;1766.40;;;;;;5067893;28;20499;-56
2022/03/09 09:04:49;;;;;;;20.25;13.73;;;180.10;1766.40;;;;;;5068361;28;20116;-57
2022/03/09 09:07:15;;;;;;;24.30;14.50;;;;;;;;;;5069172;28;20166;-56
2022/03/09 09:09:42;;;;;;;23.17;15.60;;;;;;;;;;5071352;28;20040;-55
2022/03/09 09:12:08;;;;;;;22.90;14.55;;;179.90;1792.00;;;;;;5071812;28;20840;-55
2022/03/09 09:14:33;;;;;;;24.58;19.85;;;179.80;1868.80;;;;;;5071662;28;20079;-55
2022/03/09 09:16:59;;;;;;;23.17;15.88;;;179.70;1817.60;;;;;;5071915;28;20048;-56
2022/03/09 09:19:25;;;;;;;24.67;15.65;;;179.60;1843.20;;;;;;5071481;28;20032;-54
2022/03/09 09:21:51;;;;;;;17.85;11.88;;;179.70;1843.20;;;;;;5071202;28;20020;-57
2022/03/09 09:24:17;;;;;;;28.17;18.52;;;179.50;1843.20;;;;;;5071781;28;20040;-54
2022/03/09 09:26:42;;;;;;;23.95;15.45;;;179.50;1868.80;;;;;;5071463;28;20478;-56
2022/03/09 09:29:09;;;;;;;33.28;23.38;;;179.40;1894.40;;;;;;5071676;28;20028;-55
2022/03/09 09:31:35;;;;;;;34.90;22.33;;;179.30;1894.40;;;;;;5071193;28;20045;-56
2022/03/09 09:34:02;;;;;;;29.08;20.73;;;154.40;1920.00;;;;;;5070938;28;20040;-55
2022/03/09 09:36:28;;;;;;;25.13;18.30;;;154.20;1945.60;;;;;;5071569;28;20020;-55
2022/03/09 09:38:55;;;;;;;42.47;26.13;;;154.20;1971.20;;;;;;5071259;28;20028;-56
2022/03/09 09:41:24;;;;;;;33.00;24.15;;;154.00;2022.40;;;;;;5071306;28;20025;-55
2022/03/09 09:43:50;;;;;;;27.95;18.98;;;153.90;2048.00;;;;;;5071318;28;20032;-55
2022/03/09 09:46:16;;;;;;;33.92;24.00;;;153.90;2073.60;;;;;;5071101;28;20035;-55
2022/03/09 09:48:45;;;;;;;35.38;22.15;;;153.70;2150.40;;;;;;5070611;28;20352;-57
2022/03/09 09:51:12;;;;;;;35.20;21.52;;;153.60;2176.00;;;;;;5071469;28;20037;-55
2022/03/09 09:53:45;;;;;;;45.28;28.65;;;128.90;2252.80;;;;;;5071207;28;20045;-55
2022/03/09 09:56:15;;;;;;;46.92;31.48;;;128.90;2252.80;;;;;;5070994;28;20032;-55
2022/03/09 09:58:44;;;;;;;38.22;23.42;;;128.90;2252.80;;;;;;5070974;28;20039;-55
2022/03/09 10:01:10;;;;;;;47.15;28.40;;;153.60;2252.80;;;;;;5070582;28;20021;-57
2022/03/09 10:03:37;;;;;;;37.13;24.98;;;;;;;;;;5070933;28;20025;-56
2022/03/09 10:06:03;;;;;;;40.38;22.55;;;;;;;;;;5070638;28;20099;-56
2022/03/09 10:08:29;;;;;;;57.78;35.45;;;153.60;2252.80;;;;;;5070489;28;20043;-56
2022/03/09 10:11:01;;;;;;;57.42;35.50;;;128.90;2252.80;;;;;;5070471;28;20028;-54
2022/03/09 10:13:35;;;;;;;54.33;35.22;;;128.70;2252.80;;;;;;5070135;28;20039;-56
2022/03/09 10:16:10;;;;;;;76.22;44.80;;;128.60;2252.80;;;;;;5070669;28;20028;-56
2022/03/09 10:18:36;;;;;;;106.20;61.17;;;128.60;2252.80;;;;;;5070190;28;20103;-55
2022/03/09 10:21:17;;;;;;;57.03;35.13;;;128.50;2252.80;;;;;;5070370;28;20566;-58
2022/03/09 10:24:02;;;;;;;44.63;24.17;;;128.50;2252.80;;;;;;5070472;28;20112;-55
2022/03/09 10:26:40;;;;;;;44.17;27.00;;;;;;;;;;5069967;28;20040;-56
2022/03/09 10:29:16;;;;;;;46.00;30.20;;;;;;;;;;5070609;28;20036;-57
2022/03/09 10:31:44;;;;;;;62.72;39.47;;;;;;;;;;5070162;28;20036;-58
2022/03/09 10:34:10;;;;;;;47.30;31.13;;;;;;;;;;5070311;28;20078;-55
2022/03/09 10:36:36;;;;;;;28.95;19.58;;;;;;;;;;5070090;28;20021;-55
2022/03/09 10:39:15;;;;;;;28.23;17.13;;;;;;;;;;5069775;28;20039;-56
2022/03/09 10:41:42;;;;;;;22.70;16.17;;;;;;;;;;5070078;28;20039;-55
2022/03/09 10:44:08;;;;;;;26.02;14.82;;;;;;;;;;5071543;28;20112;-58
2022/03/09 10:46:54;;;;;;;27.40;16.00;;;;;;;;;;5071811;28;20025;-58
2022/03/09 10:49:24;;;;;;;24.70;17.27;;;;;;;;;;5071746;28;20039;-55
2022/03/09 10:51:52;;;;;;;24.85;16.83;;;128.90;2252.80;;;;;;5071699;28;20025;-57
2022/03/09 10:54:26;;;;;;;27.05;14.57;;;128.70;2252.80;;;;;;5071502;28;20033;-57
2022/03/09 10:57:12;;;;;;;31.20;20.08;;;128.60;2252.80;;;;;;5071547;28;20021;-55
2022/03/09 10:59:49;;;;;;;49.17;44.33;;;128.40;2252.80;;;;;;5071406;28;20035;-54
2022/03/09 11:02:20;;;;;;;34.30;25.58;;;128.40;2252.80;;;;;;5071135;28;20056;-55
2022/03/09 11:05:09;;;;;;;29.95;18.45;;;128.50;2252.80;;;;;;5071269;28;20024;-55
2022/03/09 11:07:37;;;;;;;20.33;14.98;;;128.80;2252.80;;;;;;5070882;28;20115;-55
2022/03/09 11:10:04;;;;;;;23.45;15.23;;;128.80;2252.80;;;;;;5070936;28;20020;-55
2022/03/09 11:12:31;;;;;;;22.50;15.80;;;128.70;2252.80;;;;;;5071143;28;20047;-55
2022/03/09 11:14:57;;;;;;;21.92;18.08;;;128.70;2252.80;;;;;;5069036;28;20522;-58
2022/03/09 11:17:24;;;;;;;23.50;17.73;;;128.80;2252.80;;;;;;5068813;28;20115;-57
2022/03/09 11:19:50;;;;;;;25.58;18.17;;;128.90;2252.80;;;;;;5069681;28;20115;-55
2022/03/09 11:22:16;;;;;;;34.78;31.13;;;153.70;2252.80;;;;;;5069301;28;20582;-56
2022/03/09 11:24:42;;;;;;;25.45;18.88;;;153.70;2252.80;;;;;;5069278;28;20134;-57
2022/03/09 11:27:10;;;;;;;24.05;17.58;;;153.80;2252.80;;;;;;5069364;28;20028;-57
2022/03/09 11:29:38;;;;;;;24.70;16.95;;;154.00;2252.80;;;;;;5067800;28;20123;-58
2022/03/09 11:32:06;;;;;;;24.13;15.40;;;154.00;2252.80;;;;;;5068722;28;20039;-56
2022/03/09 11:34:46;;;;;;;43.97;39.75;;;154.00;2252.80;;;;;;5069335;28;20036;-56
2022/03/09 11:37:15;;;;;;;36.83;25.63;;;153.80;2252.80;;;;;;5068713;28;20063;-56
2022/03/09 11:40:06;;;;;;;37.92;24.10;;;153.70;2252.80;;;;;;5069019;28;20054;-56
2022/03/09 11:42:34;;;;;;;24.98;16.52;;;128.80;2252.80;;;;;;5068922;28;20029;-56
2022/03/09 11:45:20;;;;;;;23.35;16.30;;;128.40;2252.80;;;;;;5068772;28;20035;-55
2022/03/09 11:48:10;;;;;;;22.40;14.65;;;128.50;2252.80;;;;;;5068793;28;20039;-57
2022/03/09 11:51:03;;;;;;;21.85;15.23;;;128.60;2252.80;;;;;;5068644;28;20033;-56
2022/03/09 11:53:59;;;;;;;25.35;17.20;;;128.60;2252.80;;;;;;5068673;28;20051;-54
2022/03/09 11:56:33;;;;;;;24.27;16.30;;;128.20;2252.80;;;;;;4986451;28;20093;-56
2022/03/09 11:59:08;;;;;;;23.90;16.13;;;;;;;;;;4987159;28;20038;-57
2022/03/09 12:01:52;;;;;;;21.80;14.75;;;;;;;;;;4986825;28;20488;-55
2022/03/09 12:04:37;;;;;;;25.58;15.40;;;;;;;;;;4987148;28;20061;-56
2022/03/09 12:07:03;;;;;;;21.48;16.25;;;;;;;;;;4986619;28;20074;-56
2022/03/09 12:09:48;;;;;;;25.67;17.80;;;;;;;;;;4986430;28;20102;-55
2022/03/09 12:12:14;;;;;;;24.30;15.45;;;128.30;2252.80;;;;;;4986736;28;20093;-57
2022/03/09 12:15:03;;;;;;;23.80;15.65;;;128.20;2252.80;;;;;;4987009;28;20496;-54
2022/03/09 12:17:37;;;;;;;21.92;15.15;;;128.20;2252.80;;;;;;4986846;28;20060;-55
2022/03/09 12:20:27;;;;;;;22.77;14.98;;;128.10;2252.80;;;;;;4986756;28;20042;-56
2022/03/09 12:22:56;;;;;;;22.70;15.90;;;;;;;;;;4928270;29;20035;-56
2022/03/09 12:25:40;;;;;;;26.52;17.83;;;128.40;2252.80;;;;;;4928944;29;20052;-54